Airfield :
LOGIN :

Register | Disclaimer

   EN    FR    IT 

 










Legend :    VFR   Marginal VFR   IFR   Intensive IFR   Very Intensive IFR
Visi :
Ceiling :
>= 8 km
>= 3000ft
5 to 8 km
1000 to 3000 ft
1500m to 5 km
500 to 1000 ft
800 to 1500m
200 to 500 ft
< 800m
< 200 ft
Symbols :   Thunderstorms  Fog  Heavy snow  Heavy precipitations  Wind > 20 kt
SIGMETs :     Misc.  Thunderstorms  Icing  Turbulence  Mountain Waves  Volcanic Ashes







- Airport Elevation : 6 ft
- IATA code : PSA


LIRP - Galileo Galilei Pisa

CURRENT METAR :
  • 111745Z 11006KT CAVOK 06/M00 Q1017 NOSIG

EXPIRED METARs :
  • 111715Z 13006KT CAVOK 06/M01 Q1017 NOSIG
  • 111645Z 12008KT CAVOK 08/M01 Q1017 NOSIG
  • 111615Z 12007KT CAVOK 08/M02 Q1017 NOSIG
  • 111545Z 12004KT CAVOK 11/M01 Q1017 NOSIG
  • 111515Z 12005KT CAVOK 11/M02 Q1016 NOSIG

TAF TAF LIRP
Valid from the 11 at 18:00 until the 12 at 18:00 UTC


111700Z 1118/1218 11007KT CAVOK
BECMG 1118/1120 9999 SCT080
BECMG 1212/1214 SCT020 BKN060
No reported NOTAMs for that airfield.
2 SIGMETs reported for the Milano FIR (LIMM) :
 
Severe turbulence
LIMM SIGMET 5 VALID 111800/112100 LIIP
LIMM MILANO FIR SEV TURB FCST W OF LINE N4708 E01115 - N4324 E01342 ABV FL220 MOV E NC=
Severe turbulence
LIMM SIGMET 4 VALID 111440/111800 LIIP
LIMM MILANO FIR SEV TURB FCST W OF LINE N4708 E01115 - N4324 E01342 ABV FL220 MOV E NC=



MET'MAP, your aeronautical weather chart ! - Copyright ORBIFLY December 2007 - Disclaimer

ORBIFLY MET'MAP TEAM :

Programming & Development : Alexandra Zaïnal
Concept & Development : Baudouin d'Aumeries
Co-Development & Prog : Marc-Olivier Méhu
Technical & hardware support : Manuel Goepfert

Contact : metmap@orbifly.com




SOURCES & CREDITS :

   NOAA